Terminal Aerodrome Forecast
Issued by NWS

Home | Current Version | Previous Version | Text Only | Print | Product List | Glossary On
Versions: 1 2 3 4 5 6 7 8 9 10 11 12 13 14 15 16 17 18
000
FTUS45 KRIW 202300
TAFRKS
TAF
KRKS 202323Z 2100/2124 30011KT P6SM VCSH FEW050 BKN070
     FM210300 36006KT P6SM BKN080
     FM210800 08007KT P6SM VCFG SCT010 BKN040
     FM211400 28010KT P6SM FEW040 BKN150=

USA.gov is the U.S. government's official web portal to all federal, state and local government web resources and services.